Time;durP1;ratioP1;P1;durP2;ratioP2;P2;SDS_P1;SDS_P2;PMS_P1;PMS_P2;Temp;Humidity;BMP_temperature;BMP_pressure;BME280_temperature;BME280_humidity;BME280_pressure;Samples;Min_cycle;Max_cycle;Signal;HPM_P1;HPM_P2
2022/10/02 00:02:18;;;;;;;1999.90;999.90;;;17.40;99.90;;;;;;4975059;28;19957;-77
2022/10/02 00:04:51;;;;;;;1999.90;999.90;;;17.50;99.90;;;;;;4973887;28;20094;-77
2022/10/02 00:07:19;;;;;;;1999.90;999.90;;;17.40;99.90;;;;;;4974919;28;20050;-76
2022/10/02 00:10:02;;;;;;;1999.90;999.90;;;17.40;99.90;;;;;;4974630;28;20027;-77
2022/10/02 00:12:30;;;;;;;1999.90;999.90;;;17.40;99.90;;;;;;4974996;28;20034;-76
2022/10/02 00:15:03;;;;;;;1999.90;999.90;;;17.40;99.90;;;;;;4975030;28;20026;-77
2022/10/02 00:17:36;;;;;;;1999.90;999.90;;;17.40;99.90;;;;;;4981507;28;20029;-77
2022/10/02 00:20:11;;;;;;;1999.90;999.90;;;17.40;99.90;;;;;;4993628;28;20030;-76
2022/10/02 00:22:36;;;;;;;1999.90;999.90;;;17.40;99.90;;;;;;4993034;28;20065;-77
2022/10/02 00:25:20;;;;;;;1999.90;999.90;;;17.40;99.90;;;;;;4993994;28;20050;-76
2022/10/02 00:28:02;;;;;;;1999.90;999.90;;;17.40;99.90;;;;;;4992756;28;20033;-76
2022/10/02 00:30:35;;;;;;;1999.90;999.90;;;17.50;99.90;;;;;;4993997;28;20476;-77
2022/10/02 00:33:25;;;;;;;1999.90;999.90;;;17.50;99.90;;;;;;4993962;28;20019;-77
2022/10/02 00:36:15;;;;;;;1999.90;999.90;;;17.50;99.90;;;;;;4993942;28;20280;-77
2022/10/02 00:39:07;;;;;;;1999.90;999.90;;;17.50;99.90;;;;;;4991955;28;20024;-76
2022/10/02 00:42:01;;;;;;;1999.90;999.90;;;17.60;99.90;;;;;;4973202;28;20109;-77
2022/10/02 00:44:49;;;;;;;1999.90;999.90;;;17.50;99.90;;;;;;4974488;28;20023;-77
2022/10/02 00:47:32;;;;;;;1999.90;999.90;;;17.60;99.90;;;;;;4974150;28;20632;-77
2022/10/02 00:49:58;;;;;;;;;;;17.60;99.90;;;;;;4974435;28;20494;-76
2022/10/02 00:52:23;;;;;;;1999.90;999.90;;;17.60;99.90;;;;;;4974476;28;19906;-76
2022/10/02 00:54:52;;;;;;;1999.90;999.90;;;17.50;99.90;;;;;;4974400;28;20030;-77
2022/10/02 00:57:29;;;;;;;1999.90;999.90;;;17.60;99.90;;;;;;4974194;28;20030;-77
2022/10/02 01:00:04;;;;;;;1999.90;999.90;;;17.60;99.90;;;;;;4972706;28;20034;-77
2022/10/02 01:02:43;;;;;;;1999.90;999.90;;;17.50;99.90;;;;;;4974473;28;20390;-77
2022/10/02 01:05:09;;;;;;;1999.90;999.90;;;17.60;99.90;;;;;;4974350;28;20030;-77
2022/10/02 01:07:38;;;;;;;1999.90;999.90;;;17.60;99.90;;;;;;4973835;28;20106;-77
2022/10/02 01:10:05;;;;;;;1999.90;999.90;;;17.60;99.90;;;;;;4973847;28;20453;-77
2022/10/02 01:12:30;;;;;;;1999.90;999.90;;;17.60;99.90;;;;;;4973874;28;20109;-77
2022/10/02 01:14:56;;;;;;;1999.90;999.90;;;17.60;99.90;;;;;;4972639;28;20463;-77
2022/10/02 01:17:25;;;;;;;1999.90;999.90;;;17.60;99.90;;;;;;4979134;28;20420;-76
2022/10/02 01:19:51;;;;;;;1999.90;999.90;;;17.60;99.90;;;;;;4993008;28;20121;-77
2022/10/02 01:22:33;;;;;;;1999.90;999.90;;;17.60;99.90;;;;;;4991443;28;20057;-77
2022/10/02 01:25:03;;;;;;;1999.90;999.90;;;17.60;99.90;;;;;;4991799;28;20034;-77
2022/10/02 01:27:30;;;;;;;1999.90;999.90;;;17.60;99.90;;;;;;4993154;28;20022;-77
2022/10/02 01:30:06;;;;;;;1999.90;999.90;;;17.70;99.90;;;;;;4993108;28;20029;-77
2022/10/02 01:32:34;;;;;;;1999.90;999.90;;;17.70;99.90;;;;;;4992843;28;20027;-77
2022/10/02 01:35:00;;;;;;;1999.90;999.90;;;17.70;99.90;;;;;;4992974;28;20474;-77
2022/10/02 01:37:29;;;;;;;1999.90;999.90;;;17.70;99.90;;;;;;4992586;28;20429;-78
2022/10/02 01:40:02;;;;;;;1999.90;999.90;;;17.70;99.90;;;;;;4992887;28;20556;-78
2022/10/02 01:42:28;;;;;;;1999.90;999.90;;;17.60;99.90;;;;;;4993203;28;20437;-77
2022/10/02 01:44:54;;;;;;;1999.90;999.90;;;17.70;99.90;;;;;;4993159;28;20019;-77
2022/10/02 01:47:37;;;;;;;1999.90;999.90;;;17.60;99.90;;;;;;4992925;28;20101;-78
2022/10/02 01:50:18;;;;;;;1999.90;999.90;;;17.60;99.90;;;;;;4992082;28;20011;-78
2022/10/02 01:53:05;;;;;;;1999.90;999.90;;;17.60;99.90;;;;;;4993119;28;20397;-77
2022/10/02 01:55:49;;;;;;;1999.90;999.90;;;17.60;99.90;;;;;;4992774;28;20464;-78
2022/10/02 01:59:10;;;;;;;1999.90;999.90;;;17.60;99.90;;;;;;4992797;28;20062;-78
2022/10/02 02:01:50;;;;;;;1999.90;999.90;;;17.60;99.90;;;;;;4991475;28;20064;-78
2022/10/02 02:04:24;;;;;;;1999.90;999.90;;;17.50;99.90;;;;;;4992621;28;20030;-77
2022/10/02 02:07:27;;;;;;;1999.90;999.90;;;17.50;99.90;;;;;;4992715;28;20046;-78
2022/10/02 02:10:08;;;;;;;1999.90;999.90;;;17.50;99.90;;;;;;4992531;28;20523;-77
2022/10/02 02:12:53;;;;;;;1999.90;999.90;;;17.50;99.90;;;;;;4992630;28;20556;-78
2022/10/02 02:15:28;;;;;;;1999.90;999.90;;;17.60;99.90;;;;;;4992803;28;20026;-77
2022/10/02 02:18:16;;;;;;;1999.90;999.90;;;17.50;99.90;;;;;;4991188;28;20118;-78
2022/10/02 02:20:47;;;;;;;1999.90;999.90;;;17.50;99.90;;;;;;4992562;28;20110;-78
2022/10/02 02:23:16;;;;;;;1999.90;999.90;;;17.40;99.90;;;;;;4992430;28;20105;-78
2022/10/02 02:25:47;;;;;;;1999.90;999.90;;;17.40;99.90;;;;;;4992365;28;20132;-77
2022/10/02 02:28:16;;;;;;;1999.90;999.90;;;17.40;99.90;;;;;;4992479;28;20034;-78
2022/10/02 02:30:45;;;;;;;1999.90;999.90;;;17.40;99.90;;;;;;4992688;28;20089;-78
2022/10/02 02:33:21;;;;;;;1999.90;999.90;;;17.30;99.90;;;;;;4993860;28;20027;-77
2022/10/02 02:35:52;;;;;;;1999.90;999.90;;;17.40;99.90;;;;;;4996178;28;20026;-79
2022/10/02 02:38:35;;;;;;;1999.90;999.90;;;17.30;99.90;;;;;;4994582;28;20496;-78
2022/10/02 02:41:06;;;;;;;1999.90;999.90;;;17.30;99.90;;;;;;4996223;28;20041;-78
2022/10/02 02:43:56;;;;;;;1999.90;999.90;;;17.30;99.90;;;;;;4996018;28;20289;-78
2022/10/02 02:46:33;;;;;;;1999.90;999.90;;;17.20;99.90;;;;;;4996085;28;20026;-78
2022/10/02 02:49:06;;;;;;;1999.90;999.90;;;17.10;99.90;;;;;;4995863;28;20563;-78
2022/10/02 02:51:38;;;;;;;1999.90;999.90;;;17.10;99.90;;;;;;4995844;28;20575;-78
2022/10/02 02:54:30;;;;;;;1999.90;999.90;;;17.10;99.90;;;;;;4995834;28;20031;-78
2022/10/02 02:56:57;;;;;;;1999.90;999.90;;;17.10;99.90;;;;;;4995654;28;20072;-79
2022/10/02 02:59:27;;;;;;;1999.90;999.90;;;17.10;99.90;;;;;;4995807;28;20401;-79
2022/10/02 03:01:52;;;;;;;1999.90;999.90;;;17.10;99.90;;;;;;4995658;28;20022;-78
2022/10/02 03:04:21;;;;;;;1999.90;999.90;;;17.10;99.90;;;;;;4994376;28;20375;-78
2022/10/02 03:06:51;;;;;;;1999.90;999.90;;;17.10;99.90;;;;;;4995741;28;20402;-77
2022/10/02 03:09:19;;;;;;;1999.90;999.90;;;17.20;99.90;;;;;;4995571;28;20429;-78
2022/10/02 03:12:06;;;;;;;1999.90;999.90;;;17.20;99.90;;;;;;4995142;28;20038;-78
2022/10/02 03:14:50;;;;;;;1999.90;999.90;;;17.20;99.90;;;;;;4995755;28;20030;-78
2022/10/02 03:17:36;;;;;;;1999.90;999.90;;;17.20;99.90;;;;;;4988892;28;20405;-78
2022/10/02 03:20:38;;;;;;;1999.90;999.90;;;17.20;99.90;;;;;;4974592;28;20050;-78
2022/10/02 03:23:40;;;;;;;1999.90;999.90;;;17.20;99.90;;;;;;4984619;28;20038;-78
2022/10/02 03:26:33;;;;;;;1999.90;999.90;;;17.20;99.90;;;;;;4978610;28;20509;-78
2022/10/02 03:29:04;;;;;;;1999.90;999.90;;;17.20;99.90;;;;;;4975953;28;20019;-77
2022/10/02 03:31:32;;;;;;;1999.90;999.90;;;17.20;99.90;;;;;;4975738;28;20023;-77
2022/10/02 03:34:00;;;;;;;1999.90;999.90;;;17.20;99.90;;;;;;4975402;28;20015;-77
2022/10/02 03:36:26;;;;;;;1999.90;999.90;;;17.20;99.90;;;;;;4975781;28;20027;-77
2022/10/02 03:38:56;;;;;;;1999.90;999.90;;;17.30;99.90;;;;;;4980004;28;20018;-78
2022/10/02 03:41:21;;;;;;;1999.90;999.90;;;17.30;99.90;;;;;;4994959;28;20121;-78
2022/10/02 03:43:47;;;;;;;1999.90;999.90;;;17.30;99.90;;;;;;4993575;28;20133;-77
2022/10/02 03:46:12;;;;;;;1999.90;999.90;;;17.30;99.90;;;;;;4994376;28;20034;-78
2022/10/02 03:48:38;;;;;;;1999.90;999.90;;;17.30;99.90;;;;;;4993397;28;20045;-78
2022/10/02 03:51:04;;;;;;;1999.90;999.90;;;17.20;99.90;;;;;;4995024;28;20088;-78
2022/10/02 03:53:34;;;;;;;1999.90;999.90;;;17.20;99.90;;;;;;4994526;28;20515;-78
2022/10/02 03:56:12;;;;;;;1999.90;999.90;;;17.30;99.90;;;;;;4984396;28;20050;-78
2022/10/02 03:58:43;;;;;;;1999.90;999.90;;;17.30;99.90;;;;;;4974077;28;20027;-78
2022/10/02 04:01:19;;;;;;;1999.90;999.90;;;17.30;99.90;;;;;;4975257;28;20117;-78
2022/10/02 04:03:52;;;;;;;1999.90;999.90;;;17.30;99.90;;;;;;4984348;28;20129;-77
2022/10/02 04:06:32;;;;;;;1999.90;999.90;;;17.30;99.90;;;;;;4994409;28;20050;-78
2022/10/02 04:09:18;;;;;;;1999.90;999.90;;;17.30;99.90;;;;;;4994424;28;20102;-79
2022/10/02 04:11:58;;;;;;;1999.90;999.90;;;17.40;99.90;;;;;;4996390;28;20129;-78
2022/10/02 04:14:40;;;;;;;1999.90;999.90;;;17.40;99.90;;;;;;4989900;28;20062;-77
2022/10/02 04:17:19;;;;;;;1999.90;999.90;;;17.40;99.90;;;;;;4978312;28;20026;-78
2022/10/02 04:20:01;;;;;;;1999.90;999.90;;;17.40;99.90;;;;;;4991688;28;20065;-77
2022/10/02 04:22:44;;;;;;;1999.90;999.90;;;17.40;99.90;;;;;;4993981;28;20034;-77
2022/10/02 04:25:23;;;;;;;1999.90;999.90;;;17.30;99.90;;;;;;4994196;28;20033;-78
2022/10/02 04:27:54;;;;;;;1999.90;999.90;;;17.30;99.90;;;;;;4994030;28;20053;-78
2022/10/02 04:30:20;;;;;;;1999.90;999.90;;;17.30;99.90;;;;;;4993984;28;20015;-77
2022/10/02 04:32:46;;;;;;;1999.90;999.90;;;17.30;99.90;;;;;;4994220;28;20032;-78
2022/10/02 04:36:13;;;;;;;1999.90;999.90;;;17.30;99.90;;;;;;4992234;28;20026;-78
2022/10/02 04:38:57;;;;;;;1999.90;999.90;;;17.30;99.90;;;;;;4991362;28;20026;-78
2022/10/02 04:42:02;;;;;;;1999.90;999.90;;;17.20;99.90;;;;;;4991633;28;20134;-78
2022/10/02 04:44:58;;;;;;;1999.90;999.90;;;17.30;99.90;;;;;;4991755;28;20137;-78
2022/10/02 04:47:52;;;;;;;1999.90;999.90;;;17.20;99.90;;;;;;4991293;28;20506;-78
2022/10/02 04:50:48;;;;;;;1999.90;999.90;;;17.20;99.90;;;;;;4991418;28;20040;-78
2022/10/02 04:53:19;;;;;;;1999.90;999.90;;;17.10;99.90;;;;;;4991601;28;20064;-78
2022/10/02 04:55:57;;;;;;;1999.90;999.90;;;17.10;99.90;;;;;;4990679;28;20046;-78
2022/10/02 04:58:34;;;;;;;1999.90;999.90;;;17.20;99.90;;;;;;4991382;28;20026;-78
2022/10/02 05:01:27;;;;;;;1999.90;999.90;;;17.20;99.90;;;;;;4991614;28;20038;-79
2022/10/02 05:04:22;;;;;;;1999.90;999.90;;;17.20;99.90;;;;;;4991103;28;20041;-78
2022/10/02 05:06:57;;;;;;;1999.90;999.90;;;17.30;99.90;;;;;;4962320;28;20074;-78
2022/10/02 05:09:36;;;;;;;1999.90;999.90;;;17.30;99.90;;;;;;4992561;28;20569;-78
2022/10/02 05:12:34;;;;;;;1999.90;999.90;;;17.30;99.90;;;;;;4992924;28;20497;-78
2022/10/02 05:15:40;;;;;;;1999.90;999.90;;;17.30;99.90;;;;;;4993592;28;20022;-78
2022/10/02 05:18:43;;;;;;;1999.90;999.90;;;17.30;99.90;;;;;;4992421;28;20516;-78
2022/10/02 05:21:37;;;;;;;1999.90;999.90;;;17.30;99.90;;;;;;4992135;28;20560;-77
2022/10/02 05:24:33;;;;;;;1999.90;999.90;;;17.30;99.90;;;;;;4992864;28;20065;-78
2022/10/02 05:27:14;;;;;;;1999.90;999.90;;;17.30;99.90;;;;;;4993298;28;20125;-77
2022/10/02 05:30:05;;;;;;;1999.90;999.90;;;17.30;99.90;;;;;;4992807;28;20038;-78
2022/10/02 05:32:40;;;;;;;1999.90;999.90;;;17.30;99.90;;;;;;4993156;28;20041;-78
2022/10/02 05:35:20;;;;;;;1999.90;999.90;;;17.40;99.90;;;;;;4990846;28;20150;-78
2022/10/02 05:38:05;;;;;;;1999.90;999.90;;;17.30;99.90;;;;;;4972069;28;20023;-78
2022/10/02 05:40:48;;;;;;;1999.90;999.90;;;17.40;99.90;;;;;;4991464;28;20046;-78
2022/10/02 05:43:18;;;;;;;1999.90;999.90;;;17.40;99.90;;;;;;4992947;28;20027;-78
2022/10/02 05:45:54;;;;;;;1999.90;999.90;;;17.40;99.90;;;;;;4992909;28;20068;-78
2022/10/02 05:48:28;;;;;;;1999.90;999.90;;;17.40;99.90;;;;;;4992678;28;20034;-78
2022/10/02 05:51:07;;;;;;;1999.90;999.90;;;17.40;99.90;;;;;;4993051;28;20050;-78
2022/10/02 05:53:37;;;;;;;1999.90;999.90;;;17.40;99.90;;;;;;4992763;28;20060;-78
2022/10/02 05:56:09;;;;;;;1999.90;999.90;;;17.40;99.90;;;;;;4982252;28;20058;-78
2022/10/02 05:58:46;;;;;;;1999.90;999.90;;;17.40;99.90;;;;;;4974132;28;20026;-78
2022/10/02 06:01:36;;;;;;;1999.90;999.90;;;17.40;99.90;;;;;;4973484;28;20054;-78
2022/10/02 06:04:17;;;;;;;1999.90;999.90;;;17.40;99.90;;;;;;4973017;28;20043;-78
2022/10/02 06:06:53;;;;;;;1999.90;999.90;;;17.40;99.90;;;;;;4972056;28;20584;-77
2022/10/02 06:09:33;;;;;;;1999.90;999.90;;;17.50;99.90;;;;;;4975533;28;20509;-78
2022/10/02 06:12:16;;;;;;;1999.90;999.90;;;17.50;99.90;;;;;;4976867;28;20034;-78
2022/10/02 06:14:45;;;;;;;1999.90;999.90;;;17.50;99.90;;;;;;4977333;28;20398;-77
2022/10/02 06:17:26;;;;;;;1999.90;999.90;;;17.50;99.90;;;;;;4980857;28;20023;-78
2022/10/02 06:20:17;;;;;;;1999.90;999.90;;;17.50;99.90;;;;;;4995877;28;20616;-77
2022/10/02 06:23:03;;;;;;;1999.90;999.90;;;17.50;99.90;;;;;;4995991;28;20453;-77
2022/10/02 06:25:35;;;;;;;1999.90;999.90;;;17.40;99.90;;;;;;4996523;28;20084;-77
2022/10/02 06:28:06;;;;;;;1999.90;999.90;;;17.40;99.90;;;;;;4996233;28;20250;-78
2022/10/02 06:30:37;;;;;;;1999.90;999.90;;;17.50;99.90;;;;;;4994990;28;20041;-78
2022/10/02 06:33:09;;;;;;;1999.90;999.90;;;17.50;99.90;;;;;;4995990;28;20416;-78
2022/10/02 06:36:11;;;;;;;1999.90;999.90;;;17.50;99.90;;;;;;4995983;28;20023;-77
2022/10/02 06:39:05;;;;;;;1999.90;999.90;;;17.50;99.90;;;;;;4996106;28;20019;-78
2022/10/02 06:42:09;;;;;;;1999.90;999.90;;;17.50;99.90;;;;;;4996017;28;20453;-78
2022/10/02 06:45:08;;;;;;;1999.90;999.90;;;17.50;99.90;;;;;;4996111;28;20026;-79
2022/10/02 06:48:01;;;;;;;1999.90;999.90;;;17.60;99.90;;;;;;4995871;28;20029;-78
2022/10/02 06:50:40;;;;;;;1999.90;999.90;;;17.60;99.90;;;;;;4996004;28;20490;-78
2022/10/02 06:53:14;;;;;;;1999.90;999.90;;;17.60;99.90;;;;;;4996006;28;20266;-79
2022/10/02 06:56:06;;;;;;;1999.90;999.90;;;17.60;99.90;;;;;;4988326;28;20027;-79
2022/10/02 06:58:59;;;;;;;1999.90;999.90;;;17.60;99.90;;;;;;4976496;28;20477;-78
2022/10/02 07:01:28;;;;;;;;;;;17.70;99.90;;;;;;4976483;28;20576;-78
2022/10/02 07:04:16;;;;;;;1999.90;999.90;;;17.70;99.90;;;;;;4976182;28;20266;-78
2022/10/02 07:06:53;;;;;;;1999.90;999.90;;;17.70;99.90;;;;;;4976342;28;20426;-78
2022/10/02 07:09:18;;;;;;;1999.90;999.90;;;17.70;99.90;;;;;;4991171;28;20035;-79
2022/10/02 07:11:49;;;;;;;1999.90;999.90;;;17.70;99.90;;;;;;4975723;28;20105;-78
2022/10/02 07:14:52;;;;;;;1999.90;999.90;;;17.70;99.90;;;;;;4976030;28;20093;-78
2022/10/02 07:17:24;;;;;;;1999.90;999.90;;;17.80;99.90;;;;;;4981065;28;20023;-77
2022/10/02 07:20:14;;;;;;;1999.90;999.90;;;17.90;99.90;;;;;;4993838;28;20106;-78
2022/10/02 07:22:39;;;;;;;1999.90;999.90;;;17.90;99.90;;;;;;4994986;28;20023;-76
2022/10/02 07:25:39;;;;;;;1999.90;999.90;;;17.90;99.90;;;;;;4995378;28;20031;-78
2022/10/02 07:28:20;;;;;;;1999.90;999.90;;;17.90;99.90;;;;;;4995063;28;20022;-78
2022/10/02 07:31:11;;;;;;;1999.90;999.90;;;18.00;99.90;;;;;;4993856;28;20425;-78
2022/10/02 07:33:52;;;;;;;1999.90;999.90;;;18.00;99.90;;;;;;4988115;28;20487;-78
2022/10/02 07:36:32;;;;;;;1999.90;999.90;;;17.90;99.90;;;;;;4975806;28;20027;-78
2022/10/02 07:39:08;;;;;;;1999.90;999.90;;;18.10;99.90;;;;;;4980917;28;20069;-77
2022/10/02 07:41:39;;;;;;;1999.90;999.90;;;18.20;99.90;;;;;;4995071;28;20030;-78
2022/10/02 07:44:35;;;;;;;1999.90;999.90;;;18.20;99.90;;;;;;4994808;28;20153;-79
2022/10/02 07:47:07;;;;;;;1999.90;999.90;;;18.30;99.90;;;;;;4995121;28;20402;-79
2022/10/02 07:49:42;;;;;;;1999.90;999.90;;;18.40;99.90;;;;;;4994686;28;20023;-77
2022/10/02 07:52:21;;;;;;;1999.90;999.90;;;18.30;99.90;;;;;;4994830;28;20408;-78
2022/10/02 07:55:07;;;;;;;1999.90;999.90;;;18.30;99.90;;;;;;4995109;28;20018;-78
2022/10/02 07:57:53;;;;;;;1999.90;999.90;;;18.20;99.90;;;;;;4994614;28;20030;-78
2022/10/02 08:00:22;;;;;;;1999.90;999.90;;;18.30;99.90;;;;;;4994732;28;20026;-77
2022/10/02 08:03:25;;;;;;;1999.90;999.90;;;18.30;99.90;;;;;;4994840;28;20023;-79
2022/10/02 08:05:55;;;;;;;1999.90;999.90;;;18.30;99.90;;;;;;4993856;28;20077;-80
2022/10/02 08:08:28;;;;;;;1999.90;999.90;;;18.40;99.90;;;;;;4994508;28;20068;-79
2022/10/02 08:11:11;;;;;;;1999.90;999.90;;;18.70;99.90;;;;;;4994591;28;20092;-78
2022/10/02 08:14:06;;;;;;;1999.90;999.90;;;18.90;99.90;;;;;;4994285;28;20122;-79
2022/10/02 08:16:47;;;;;;;1999.90;999.90;;;19.40;99.90;;;;;;4993991;28;20113;-77
2022/10/02 08:19:16;;;;;;;1999.90;999.90;;;19.40;99.90;;;;;;4974731;28;20379;-79
2022/10/02 08:21:47;;;;;;;1999.90;999.90;;;19.30;99.90;;;;;;4974836;28;20034;-78
2022/10/02 08:24:23;;;;;;;1999.90;999.90;;;19.30;99.90;;;;;;4973871;28;20516;-78
2022/10/02 08:26:56;;;;;;;1999.90;999.90;;;20.40;99.90;;;;;;4975000;28;20433;-80
2022/10/02 08:29:56;;;;;;;1999.90;999.90;;;21.70;99.90;;;;;;4974422;28;20073;-79
2022/10/02 08:32:24;;;;;;;1999.90;999.90;;;21.50;99.90;;;;;;4971820;28;20154;-78
2022/10/02 08:34:49;;;;;;;1999.90;999.90;;;21.60;99.90;;;;;;4974417;28;20026;-79
2022/10/02 08:37:34;;;;;;;1999.90;999.90;;;21.70;99.90;;;;;;4974494;28;20047;-78
2022/10/02 08:40:24;;;;;;;1999.90;999.90;;;21.80;99.90;;;;;;4974552;28;20429;-80
2022/10/02 08:43:28;;;;;;;1999.90;999.90;;;21.60;99.90;;;;;;4974569;28;20027;-78
2022/10/02 08:46:18;;;;;;;1999.90;999.90;;;20.80;99.90;;;;;;4991565;28;20034;-77
2022/10/02 08:49:21;;;;;;;1999.90;999.90;;;20.40;99.90;;;;;;4989339;28;20062;-77
2022/10/02 08:52:23;;;;;;;1999.90;999.90;;;20.20;99.90;;;;;;4974266;28;20080;-77
2022/10/02 08:55:08;;;;;;;1999.90;999.90;;;20.10;99.90;;;;;;4973155;28;20030;-80
2022/10/02 08:57:46;;;;;;;1999.90;999.90;;;20.10;99.90;;;;;;4974009;28;20114;-78
2022/10/02 09:00:30;;;;;;;1999.90;999.90;;;19.70;99.90;;;;;;4974120;28;20113;-78
2022/10/02 09:03:33;;;;;;;1999.90;999.90;;;19.50;99.90;;;;;;4974156;28;20025;-79
2022/10/02 09:06:21;;;;;;;1999.90;999.90;;;19.50;99.90;;;;;;4972674;28;20139;-79
2022/10/02 09:08:50;;;;;;;1999.90;999.90;;;19.50;99.90;;;;;;4974179;28;20106;-80
2022/10/02 09:11:27;;;;;;;1999.90;999.90;;;19.40;99.90;;;;;;4984940;28;20394;-79
2022/10/02 09:14:01;;;;;;;1999.90;999.90;;;19.40;99.90;;;;;;4993146;28;20109;-78
2022/10/02 09:17:14;;;;;;;1999.90;999.90;;;19.60;99.90;;;;;;4993356;28;20025;-78
2022/10/02 09:19:53;;;;;;;1999.90;999.90;;;19.60;99.90;;;;;;4977432;28;20562;-79
2022/10/02 09:22:34;;;;;;;1999.90;999.90;;;19.80;99.90;;;;;;4973623;28;20475;-78
2022/10/02 09:25:09;;;;;;;1999.90;999.90;;;19.90;99.90;;;;;;4972942;28;20037;-78
2022/10/02 09:27:40;;;;;;;1999.90;999.90;;;20.00;99.90;;;;;;4973644;28;20062;-77
2022/10/02 09:30:34;;;;;;;1999.90;999.90;;;20.00;99.90;;;;;;4973257;28;20037;-76
2022/10/02 09:33:47;;;;;;;1999.90;999.90;;;19.90;99.90;;;;;;4973215;28;20030;-75
2022/10/02 09:36:50;;;;;;;1999.90;999.90;;;19.90;99.90;;;;;;4973347;28;20030;-78
2022/10/02 09:39:40;;;;;;;1999.90;999.90;;;20.00;99.90;;;;;;4981249;28;20049;-79
2022/10/02 09:42:36;;;;;;;1999.90;999.90;;;20.00;99.90;;;;;;4992526;28;20030;-78
2022/10/02 09:45:31;;;;;;;1999.90;999.90;;;20.30;99.90;;;;;;4992929;28;20034;-78
2022/10/02 09:48:10;;;;;;;1999.90;999.90;;;20.40;99.90;;;;;;4992813;28;20019;-78
2022/10/02 09:51:13;;;;;;;1999.90;999.90;;;20.20;99.90;;;;;;4992900;28;20030;-77
2022/10/02 09:53:48;;;;;;;1999.90;999.90;;;20.60;99.90;;;;;;4992967;28;20377;-75
2022/10/02 09:56:59;;;;;;;1999.90;999.90;;;20.80;99.90;;;;;;4992669;28;20089;-79
2022/10/02 09:59:54;;;;;;;1999.90;999.90;;;20.80;99.90;;;;;;4992760;28;20027;-78
2022/10/02 10:02:22;;;;;;;1999.90;999.90;;;20.60;99.90;;;;;;4974573;28;20452;-78
2022/10/02 10:05:07;;;;;;;1999.90;999.90;;;20.40;99.90;;;;;;4993067;28;20026;-78
2022/10/02 10:07:53;;;;;;;1999.90;999.90;;;20.10;99.90;;;;;;4992634;28;20058;-76
2022/10/02 10:10:52;;;;;;;1999.90;999.90;;;20.20;99.90;;;;;;4992428;28;20478;-79
2022/10/02 10:13:42;;;;;;;1999.90;999.90;;;20.40;99.90;;;;;;4992456;28;20113;-76
2022/10/02 10:16:29;;;;;;;1999.90;999.90;;;20.50;99.90;;;;;;4992616;28;20027;-78
2022/10/02 10:19:28;;;;;;;1999.90;999.90;;;20.80;99.90;;;;;;4991601;28;20022;-79
2022/10/02 10:22:25;;;;;;;1999.90;999.90;;;20.40;99.90;;;;;;4992590;28;20026;-78
2022/10/02 10:25:02;;;;;;;1999.90;999.90;;;20.10;99.90;;;;;;4991731;28;20601;-79
2022/10/02 10:27:37;;;;;;;1999.90;999.90;;;19.90;99.90;;;;;;4992631;28;20019;-77
2022/10/02 10:30:23;;;;;;;1999.90;999.90;;;19.80;99.90;;;;;;4992362;28;20516;-78
2022/10/02 10:33:07;;;;;;;1999.90;999.90;;;19.80;99.90;;;;;;4992683;28;20069;-77
2022/10/02 10:35:59;;;;;;;1999.90;999.90;;;20.00;99.90;;;;;;4980275;28;20030;-77
2022/10/02 10:38:49;;;;;;;1999.90;999.90;;;20.10;99.90;;;;;;4973695;28;20502;-78
2022/10/02 10:41:34;;;;;;;1999.90;999.90;;;20.10;99.90;;;;;;4992619;28;20049;-77
2022/10/02 10:44:18;;;;;;;1999.90;999.90;;;19.80;99.90;;;;;;4992381;28;20030;-77
2022/10/02 10:47:02;;;;;;;1999.90;999.90;;;19.90;99.90;;;;;;4992721;28;20027;-78
2022/10/02 10:49:27;;;;;;;1999.90;999.90;;;19.90;99.90;;;;;;4992143;28;20036;-77
2022/10/02 10:52:29;;;;;;;1999.90;999.90;;;19.90;99.90;;;;;;4990961;28;20397;-77
2022/10/02 10:55:10;;;;;;;1999.90;999.90;;;19.80;99.90;;;;;;4993402;28;20456;-77
2022/10/02 10:57:50;;;;;;;1999.90;999.90;;;19.70;99.90;;;;;;4995833;28;20030;-77
2022/10/02 11:00:21;;;;;;;1999.90;999.90;;;19.80;99.90;;;;;;4995661;28;20030;-77
2022/10/02 11:03:17;;;;;;;1999.90;999.90;;;20.00;99.90;;;;;;4996014;28;20429;-77
2022/10/02 11:05:53;;;;;;;1999.90;999.90;;;19.80;99.90;;;;;;4995484;28;20040;-77
2022/10/02 11:08:52;;;;;;;1999.90;999.90;;;19.80;99.90;;;;;;4995582;28;20022;-76
2022/10/02 11:11:30;;;;;;;1999.90;999.90;;;20.00;99.90;;;;;;4995630;28;20113;-77
2022/10/02 11:14:04;;;;;;;1999.90;999.90;;;19.90;99.90;;;;;;4995410;28;20037;-77
2022/10/02 11:16:33;;;;;;;1999.90;999.90;;;20.00;99.90;;;;;;4994266;28;20029;-79
2022/10/02 11:19:25;;;;;;;1999.90;999.90;;;20.10;99.90;;;;;;4995349;28;20509;-78
2022/10/02 11:21:57;;;;;;;1999.90;999.90;;;20.20;99.90;;;;;;4995279;28;20065;-80
2022/10/02 11:25:00;;;;;;;1999.90;999.90;;;20.20;99.90;;;;;;4993733;28;20030;-78
2022/10/02 11:27:34;;;;;;;1999.90;999.90;;;20.40;99.90;;;;;;4995115;28;20034;-78
2022/10/02 11:30:08;;;;;;;1999.90;999.90;;;20.60;99.90;;;;;;4995117;28;20031;-79
2022/10/02 11:32:53;;;;;;;1999.90;999.90;;;20.40;99.90;;;;;;4995233;28;20023;-78
2022/10/02 11:35:41;;;;;;;1999.90;999.90;;;20.70;99.90;;;;;;4984975;28;20023;-78
2022/10/02 11:38:44;;;;;;;1999.90;999.90;;;20.80;99.90;;;;;;4975282;28;20089;-77
2022/10/02 11:41:31;;;;;;;1999.90;999.90;;;20.70;99.90;;;;;;4975817;28;20027;-77
2022/10/02 11:44:29;;;;;;;1999.90;999.90;;;20.50;99.90;;;;;;4975379;28;20069;-79
2022/10/02 11:47:26;;;;;;;1999.90;999.90;;;20.60;99.90;;;;;;4975787;28;20023;-75
2022/10/02 11:50:30;;;;;;;1999.90;999.90;;;20.20;99.90;;;;;;4975152;28;20438;-79
2022/10/02 11:53:25;;;;;;;;;;;20.30;99.90;;;;;;4996194;28;20121;-79
2022/10/02 11:56:13;;;;;;;1999.90;999.90;;;20.50;99.90;;;;;;4981846;28;20282;-77
2022/10/02 11:58:44;;;;;;;1999.90;999.90;;;20.40;99.90;;;;;;4975343;28;20501;-75
2022/10/02 12:02:05;;;;;;;1999.90;999.90;;;20.50;99.90;;;;;;4975594;28;20034;-76
2022/10/02 12:05:12;;;;;;;1999.90;999.90;;;20.60;99.90;;;;;;4973955;28;20047;-78
2022/10/02 12:07:51;;;;;;;1999.90;999.90;;;21.00;99.90;;;;;;4974891;28;20072;-78
2022/10/02 12:10:44;;;;;;;1999.90;999.90;;;21.30;99.90;;;;;;4974973;28;20027;-78
2022/10/02 12:13:16;;;;;;;1999.90;999.90;;;21.30;99.90;;;;;;4975079;28;20022;-79
2022/10/02 12:16:04;;;;;;;1999.90;999.90;;;20.90;99.90;;;;;;4974976;28;20027;-78
2022/10/02 12:18:48;;;;;;;1999.90;999.90;;;21.20;99.90;;;;;;4990048;28;20018;-78
2022/10/02 12:27:45;;;;;;;;;;;20.90;99.90;;;;;;4993864;28;20556;-77
2022/10/02 12:30:17;;;;;;;1999.90;999.90;;;20.90;99.90;;;;;;4992606;28;19906;-77
2022/10/02 12:33:20;;;;;;;1999.90;999.90;;;20.80;99.90;;;;;;4994111;28;20031;-79
2022/10/02 12:36:33;;;;;;;1999.90;999.90;;;20.90;99.90;;;;;;4978883;28;20050;-78
2022/10/02 12:39:36;;;;;;;1999.90;999.90;;;21.00;99.90;;;;;;4997244;28;20022;-78
2022/10/02 12:42:33;;;;;;;1999.90;999.90;;;21.20;99.90;;;;;;4984974;28;20533;-78
2022/10/02 12:45:37;;;;;;;1999.90;999.90;;;21.20;99.90;;;;;;4994087;28;20057;-77
2022/10/02 12:48:29;;;;;;;1999.90;999.90;;;20.90;99.90;;;;;;4993515;28;20076;-77
2022/10/02 12:51:26;;;;;;;1999.90;999.90;;;21.00;99.90;;;;;;4993819;28;20034;-77
2022/10/02 12:54:13;;;;;;;1999.90;999.90;;;21.40;99.90;;;;;;4993163;28;20082;-78
2022/10/02 12:56:56;;;;;;;1999.90;999.90;;;21.60;99.90;;;;;;4993800;28;20097;-79
2022/10/02 12:59:22;;;;;;;1999.90;999.90;;;21.80;99.90;;;;;;4993736;28;20490;-81
2022/10/02 13:02:06;;;;;;;1999.90;999.90;;;21.60;99.90;;;;;;4993269;28;20042;-79
2022/10/02 13:04:56;;;;;;;1999.90;999.90;;;21.50;99.90;;;;;;4993485;28;20030;-79
2022/10/02 13:08:00;;;;;;;1999.90;999.90;;;21.50;99.90;;;;;;4993462;28;20061;-79
2022/10/02 13:10:37;;;;;;;1999.90;999.90;;;21.50;99.90;;;;;;5010826;28;20034;-72
2022/10/02 13:13:23;;;;;;;1999.90;999.90;;;21.10;99.90;;;;;;5010726;28;20544;-78
2022/10/02 13:16:03;;;;;;;1999.90;999.90;;;20.90;99.90;;;;;;5010172;28;20057;-76
2022/10/02 13:18:42;;;;;;;1999.90;999.90;;;21.00;99.90;;;;;;5008363;28;20045;-78
2022/10/02 13:21:24;;;;;;;1999.90;999.90;;;20.90;99.90;;;;;;5010728;28;20034;-79